Sunday, January 21, 2018, 3:42 PM EST
Back to Local

KBID, Block Island, Block Island State Airport

Location: Block Island, RI, United States Lat: 41.167
Local Time: 3:42 PM EST (20:42 GMT) Lon: -71.567
Time Zone: US/Eastern Elev: 108 ft

Show me the last for .
Show Decoded

2018-01-21 14:56 METAR KBID 211956Z AUTO 26005KT 10SM CLR 06/00 A3014 RMK AO2 SLP210 T00610000 =
2018-01-21 13:56 METAR KBID 211856Z AUTO 27006KT 10SM CLR 07/00 A3013 RMK AO2 SLP207 T00670000 =
2018-01-21 12:56 METAR KBID 211756Z AUTO 28004KT 10SM CLR 07/M01 A3013 RMK AO2 SLP207 T00721006
                 10072 20028 58017 =
2018-01-21 11:56 METAR KBID 211656Z AUTO 29004KT 10SM CLR 06/M01 A3014 RMK AO2 SLP212 T00611006 =
2018-01-21 10:56 METAR KBID 211556Z AUTO 30007KT 10SM CLR 06/M01 A3017 RMK AO2 SLP220 T00611006 =
2018-01-21 09:56 METAR KBID 211456Z AUTO 31006KT 10SM CLR 05/00 A3018 RMK AO2 SLP224 T00500000
                 51022 TSNO =
2018-01-21 08:56 METAR KBID 211356Z AUTO 29007KT 10SM CLR 04/M01 A3016 RMK AO2 SLP218 T00441006 =
2018-01-21 07:56 METAR KBID 211256Z AUTO 25007KT 10SM CLR 03/00 A3014 RMK AO2 SLP210 T00330000 =
2018-01-21 06:56 METAR KBID 211156Z AUTO 26007KT 10SM CLR 03/M01 A3011 RMK AO2 SLP201 7////
                 T00331006 10050 20033 51022 =
2018-01-21 05:56 METAR KBID 211056Z AUTO 28007KT 10SM CLR 04/M02 A3009 RMK AO2 SLP195 T00391017 =
2018-01-21 04:56 METAR KBID 210956Z AUTO 27008KT 10SM CLR 04/M01 A3007 RMK AO2 SLP186 T00391011 =
2018-01-21 03:56 METAR KBID 210856Z AUTO 29007G14KT 10SM CLR 04/M01 A3005 RMK AO2 SLP179
                 T00441011 52008 =
2018-01-21 02:56 METAR KBID 210756Z AUTO 30008KT 10SM CLR 05/M01 A3004 RMK AO2 SLP177 T00501011 =
2018-01-21 01:56 METAR KBID 210656Z AUTO 27010KT 10SM CLR 04/M01 A3003 RMK AO2 SLP173 T00391006 =
2018-01-21 00:56 METAR KBID 210556Z AUTO 26010KT 10SM CLR 03/00 A3002 RMK AO2 SLP171 T00330000
                 10044 20033 51013 =
2018-01-20 23:56 METAR KBID 210456Z AUTO 27008KT 10SM CLR 04/00 A3001 RMK AO2 SLP168 T00390000 =
2018-01-20 22:56 METAR KBID 210356Z AUTO 26010KT 10SM CLR 04/00 A3000 RMK AO2 SLP162 T00390000
                 400830006 =
2018-01-20 21:56 METAR KBID 210256Z AUTO 27010KT 10SM CLR 04/00 A2998 RMK AO2 SLP158 T00390000
                 51022 =
2018-01-20 20:56 METAR KBID 210156Z AUTO 26011KT 10SM CLR 04/00 A2997 RMK AO2 SLP154 T00440000 =
2018-01-20 19:56 METAR KBID 210056Z AUTO 26013KT 10SM CLR 04/00 A2995 RMK AO2 SLP148 T00440000 =
2018-01-20 18:56 METAR KBID 202356Z AUTO 26013KT 10SM CLR 04/00 A2992 RMK AO2 SLP136 6////
                 T00440000 10083 20044 51028 =
2018-01-20 17:56 METAR KBID 202256Z AUTO 27014KT 10SM CLR 05/M01 A2990 RMK AO2 SLP128 T00501006 =
2018-01-20 16:56 METAR KBID 202156Z AUTO 27013G20KT 10SM CLR 06/M01 A2987 RMK AO2 SLP120
                 T00561011 =
2018-01-20 15:56 METAR KBID 202056Z AUTO 26014G20KT 10SM CLR 07/M01 A2984 RMK AO2 SLP108
                 T00671006 53020 =

Support USWX by starting your Amazon purchase here.